Liphook, United Kingdom
Current Conditions -  °F | °C
As of 3:16 PM on Thursday 23 Oct 2014 (Local Time) from EGVO Reporting Station
Drizzle Drizzle  
Wind Chill: 15°   Ceiling: 2000
Heat Index: 15°   Visibility: 6mi
Dew Point: 12°   Wind: 13mph
Humidity: 82%   Direction: 200°SSW
Pressure: 30.06"   Gusts: NA
Location:  51.08°N, 0.8°W
Report Text: EGVO 231416Z 20011KT 9999 -DZ SCT013 BKN020 15/12 Q1018 GRN NOSIG
Loading
Personal Weather Stations






























Interactive Weather Map
Tropical Storm Tracking
New forecast layout! Learn more

10-Day Weather Forecast

Advertisements
Track Severe Weather on mobile